PAQT

Details ICAO PAQT (NUI)
Name NUIQSUT
Region USA (Alaska)
Timezone America/Anchorage (UTC-8.0)
Plans Departing 6
Arriving 4
Stats Elevation 38 ft / 12 m (AMSL)
Location 70.209945° -151.005554°
Runways 1
Magnetic Variation 16.744° E
Sunrise Unknown / Unknown
Sunset Unknown / Unknown
Advertisement - Login to hide

Runways

ID Width Length Bearing (true) Bearing (mag) Surface Threshold Offset Overrun Length
04 89 ft / 27 m 4,347 ft / 1,325 m 69.69° 52.95° Gravel 0 ft / 0 m 0 ft / 0 m
22 89 ft / 27 m 4,347 ft / 1,325 m 249.72° 232.98° Gravel 0 ft / 0 m 0 ft / 0 m

Map

Weather


0- 5 10 15 20 25 30 35+ Temperature / ° C

Clouds and Precipitation
Forecast for 2018-05-27 18:00 UTC. Updated 3 hours ago

Ground ~20,000 ft ~40,000 ft Winds

METAR

PAQT 271953Z AUTO 06014G21KT 10SM OVC009 M05/M07 A3008 RMK AO2 SNB35E45 SLP187 P0000 T10501067 TSNO

TAF

TAF PAQT 271722Z 2718/2818 06020KT 6SM BR OVC010 FM280000 07012KT P6SM OVC007 FM280900 07008KT 4SM BR OVC004

Frequencies

Recorded 122.50 MHz ASOS
Approach 119.40 MHz ANCHORAGE CNTR
Unicom 122.80 MHz CTAF
Warning: Do not use this data for real-world aviation or navigation. No guarantee of current accuracy is given.